sensor_id;sensor_type;location;lat;lon;timestamp;temperature;humidity
23069;DHT22;11702;50.856;4.348;2022-12-29T00:01:37;11.00;99.90
23069;DHT22;11702;50.856;4.348;2022-12-29T00:04:04;11.00;99.90
23069;DHT22;11702;50.856;4.348;2022-12-29T00:06:30;11.00;99.90
23069;DHT22;11702;50.856;4.348;2022-12-29T00:08:55;11.00;99.90
23069;DHT22;11702;50.856;4.348;2022-12-29T00:11:23;11.00;99.90
23069;DHT22;11702;50.856;4.348;2022-12-29T00:13:50;11.00;99.90
23069;DHT22;11702;50.856;4.348;2022-12-29T00:16:35;11.00;99.90
23069;DHT22;11702;50.856;4.348;2022-12-29T00:19:02;11.00;99.90
23069;DHT22;11702;50.856;4.348;2022-12-29T00:21:28;11.00;99.90
23069;DHT22;11702;50.856;4.348;2022-12-29T00:24:21;11.00;99.90
23069;DHT22;11702;50.856;4.348;2022-12-29T00:27:19;11.00;99.90
23069;DHT22;11702;50.856;4.348;2022-12-29T00:30:11;11.10;99.90
23069;DHT22;11702;50.856;4.348;2022-12-29T00:32:57;11.00;99.90
23069;DHT22;11702;50.856;4.348;2022-12-29T00:35:51;11.10;99.90
23069;DHT22;11702;50.856;4.348;2022-12-29T00:38:19;11.20;99.90
23069;DHT22;11702;50.856;4.348;2022-12-29T00:41:05;11.20;99.90
23069;DHT22;11702;50.856;4.348;2022-12-29T00:43:49;11.30;99.90
23069;DHT22;11702;50.856;4.348;2022-12-29T00:46:31;11.30;99.90
23069;DHT22;11702;50.856;4.348;2022-12-29T00:48:57;11.40;99.90
23069;DHT22;11702;50.856;4.348;2022-12-29T00:51:52;11.40;99.90
23069;DHT22;11702;50.856;4.348;2022-12-29T00:54:19;11.40;99.90
23069;DHT22;11702;50.856;4.348;2022-12-29T00:56:49;11.40;99.90
23069;DHT22;11702;50.856;4.348;2022-12-29T00:59:15;11.50;99.90
23069;DHT22;11702;50.856;4.348;2022-12-29T01:01:41;11.50;99.90
23069;DHT22;11702;50.856;4.348;2022-12-29T01:04:07;11.40;99.90
23069;DHT22;11702;50.856;4.348;2022-12-29T01:06:33;11.40;99.90
23069;DHT22;11702;50.856;4.348;2022-12-29T01:08:59;11.40;99.90
23069;DHT22;11702;50.856;4.348;2022-12-29T01:11:43;11.60;99.90
23069;DHT22;11702;50.856;4.348;2022-12-29T01:14:08;11.60;99.90
23069;DHT22;11702;50.856;4.348;2022-12-29T01:16:34;11.50;99.90
23069;DHT22;11702;50.856;4.348;2022-12-29T01:19:02;11.60;99.90
23069;DHT22;11702;50.856;4.348;2022-12-29T01:21:27;11.30;99.90
23069;DHT22;11702;50.856;4.348;2022-12-29T01:23:53;11.30;99.90
23069;DHT22;11702;50.856;4.348;2022-12-29T01:26:19;11.30;99.90
23069;DHT22;11702;50.856;4.348;2022-12-29T01:28:45;11.20;99.90
23069;DHT22;11702;50.856;4.348;2022-12-29T01:31:12;11.00;99.90
23069;DHT22;11702;50.856;4.348;2022-12-29T01:33:38;11.00;99.90
23069;DHT22;11702;50.856;4.348;2022-12-29T01:36:05;10.90;99.90
23069;DHT22;11702;50.856;4.348;2022-12-29T01:38:32;10.80;99.90
23069;DHT22;11702;50.856;4.348;2022-12-29T01:40:58;10.70;99.90
23069;DHT22;11702;50.856;4.348;2022-12-29T01:43:54;10.70;99.90
23069;DHT22;11702;50.856;4.348;2022-12-29T01:46:41;10.60;99.90
23069;DHT22;11702;50.856;4.348;2022-12-29T01:51:36;10.70;99.90
23069;DHT22;11702;50.856;4.348;2022-12-29T01:54:09;10.70;99.90
23069;DHT22;11702;50.856;4.348;2022-12-29T01:56:36;10.60;99.90
23069;DHT22;11702;50.856;4.348;2022-12-29T01:59:08;10.70;99.90
23069;DHT22;11702;50.856;4.348;2022-12-29T02:01:36;10.60;99.90
23069;DHT22;11702;50.856;4.348;2022-12-29T02:04:02;10.60;99.90
23069;DHT22;11702;50.856;4.348;2022-12-29T02:06:33;10.60;99.90
23069;DHT22;11702;50.856;4.348;2022-12-29T02:09:00;10.60;99.90
23069;DHT22;11702;50.856;4.348;2022-12-29T02:11:28;10.60;99.90
23069;DHT22;11702;50.856;4.348;2022-12-29T02:13:54;10.60;99.90
23069;DHT22;11702;50.856;4.348;2022-12-29T02:35:51;10.00;99.90
23069;DHT22;11702;50.856;4.348;2022-12-29T02:41:02;10.00;99.90
23069;DHT22;11702;50.856;4.348;2022-12-29T02:43:54;10.00;99.90
23069;DHT22;11702;50.856;4.348;2022-12-29T02:46:37;10.10;99.90
23069;DHT22;11702;50.856;4.348;2022-12-29T02:49:10;9.90;99.90
23069;DHT22;11702;50.856;4.348;2022-12-29T02:51:45;9.90;99.90
23069;DHT22;11702;50.856;4.348;2022-12-29T02:54:12;9.90;99.90
23069;DHT22;11702;50.856;4.348;2022-12-29T02:56:56;9.80;99.90
23069;DHT22;11702;50.856;4.348;2022-12-29T02:59:22;9.80;99.90
23069;DHT22;11702;50.856;4.348;2022-12-29T03:11:02;9.70;99.90
23069;DHT22;11702;50.856;4.348;2022-12-29T03:19:07;9.50;99.90
23069;DHT22;11702;50.856;4.348;2022-12-29T03:21:44;9.50;99.90
23069;DHT22;11702;50.856;4.348;2022-12-29T03:24:32;9.50;99.90
23069;DHT22;11702;50.856;4.348;2022-12-29T03:27:02;9.40;99.90
23069;DHT22;11702;50.856;4.348;2022-12-29T03:29:31;9.40;99.90
23069;DHT22;11702;50.856;4.348;2022-12-29T03:31:59;9.30;99.90
23069;DHT22;11702;50.856;4.348;2022-12-29T03:34:26;9.40;99.90
23069;DHT22;11702;50.856;4.348;2022-12-29T03:37:04;9.40;99.90
23069;DHT22;11702;50.856;4.348;2022-12-29T03:39:32;9.40;99.90
23069;DHT22;11702;50.856;4.348;2022-12-29T03:42:06;9.50;99.90
23069;DHT22;11702;50.856;4.348;2022-12-29T03:44:37;9.60;99.90
23069;DHT22;11702;50.856;4.348;2022-12-29T03:47:05;9.50;99.90
23069;DHT22;11702;50.856;4.348;2022-12-29T03:49:32;9.60;99.90
23069;DHT22;11702;50.856;4.348;2022-12-29T03:51:58;9.70;99.90
23069;DHT22;11702;50.856;4.348;2022-12-29T03:54:24;9.70;99.90
23069;DHT22;11702;50.856;4.348;2022-12-29T03:56:49;9.80;99.90
23069;DHT22;11702;50.856;4.348;2022-12-29T03:59:15;9.80;99.90
23069;DHT22;11702;50.856;4.348;2022-12-29T04:01:40;9.80;99.90
23069;DHT22;11702;50.856;4.348;2022-12-29T04:04:06;9.70;99.90
23069;DHT22;11702;50.856;4.348;2022-12-29T04:06:32;9.70;99.90
23069;DHT22;11702;50.856;4.348;2022-12-29T04:08:57;9.60;99.90
23069;DHT22;11702;50.856;4.348;2022-12-29T04:11:23;9.50;99.90
23069;DHT22;11702;50.856;4.348;2022-12-29T04:13:49;9.50;99.90
23069;DHT22;11702;50.856;4.348;2022-12-29T04:16:14;9.50;99.90
23069;DHT22;11702;50.856;4.348;2022-12-29T04:18:40;9.40;99.90
23069;DHT22;11702;50.856;4.348;2022-12-29T04:21:06;9.40;99.90
23069;DHT22;11702;50.856;4.348;2022-12-29T04:23:34;9.30;99.90
23069;DHT22;11702;50.856;4.348;2022-12-29T04:26:00;9.30;99.90
23069;DHT22;11702;50.856;4.348;2022-12-29T04:28:26;9.30;99.90
23069;DHT22;11702;50.856;4.348;2022-12-29T04:30:52;9.30;99.90
23069;DHT22;11702;50.856;4.348;2022-12-29T04:33:17;9.30;99.90
23069;DHT22;11702;50.856;4.348;2022-12-29T04:35:43;9.20;99.90
23069;DHT22;11702;50.856;4.348;2022-12-29T04:38:09;9.30;99.90
23069;DHT22;11702;50.856;4.348;2022-12-29T04:40:35;9.30;99.90
23069;DHT22;11702;50.856;4.348;2022-12-29T04:43:02;9.40;99.90
23069;DHT22;11702;50.856;4.348;2022-12-29T04:45:28;9.50;99.90
23069;DHT22;11702;50.856;4.348;2022-12-29T04:47:54;9.40;99.90
23069;DHT22;11702;50.856;4.348;2022-12-29T04:50:19;9.40;99.90
23069;DHT22;11702;50.856;4.348;2022-12-29T04:52:46;9.30;99.90
23069;DHT22;11702;50.856;4.348;2022-12-29T04:55:12;9.20;99.90
23069;DHT22;11702;50.856;4.348;2022-12-29T04:57:37;9.20;99.90
23069;DHT22;11702;50.856;4.348;2022-12-29T05:00:04;9.20;99.90
23069;DHT22;11702;50.856;4.348;2022-12-29T05:02:30;9.30;99.90
23069;DHT22;11702;50.856;4.348;2022-12-29T05:04:55;9.30;99.90
23069;DHT22;11702;50.856;4.348;2022-12-29T05:07:21;9.30;99.90
23069;DHT22;11702;50.856;4.348;2022-12-29T05:09:46;9.40;99.90
23069;DHT22;11702;50.856;4.348;2022-12-29T05:12:14;9.60;99.90
23069;DHT22;11702;50.856;4.348;2022-12-29T05:14:40;9.60;99.90
23069;DHT22;11702;50.856;4.348;2022-12-29T05:17:05;9.70;99.90
23069;DHT22;11702;50.856;4.348;2022-12-29T05:19:31;9.70;99.90
23069;DHT22;11702;50.856;4.348;2022-12-29T05:21:57;9.70;99.90
23069;DHT22;11702;50.856;4.348;2022-12-29T05:24:23;9.60;99.90
23069;DHT22;11702;50.856;4.348;2022-12-29T05:26:48;9.70;99.90
23069;DHT22;11702;50.856;4.348;2022-12-29T05:29:14;9.70;99.90
23069;DHT22;11702;50.856;4.348;2022-12-29T05:31:40;9.70;99.90
23069;DHT22;11702;50.856;4.348;2022-12-29T05:34:05;9.90;99.90
23069;DHT22;11702;50.856;4.348;2022-12-29T05:36:31;9.90;99.90
23069;DHT22;11702;50.856;4.348;2022-12-29T05:38:56;9.80;99.90
23069;DHT22;11702;50.856;4.348;2022-12-29T05:41:22;10.00;99.90
23069;DHT22;11702;50.856;4.348;2022-12-29T05:43:49;10.00;99.90
23069;DHT22;11702;50.856;4.348;2022-12-29T05:46:14;9.90;99.90
23069;DHT22;11702;50.856;4.348;2022-12-29T05:48:40;10.00;99.90
23069;DHT22;11702;50.856;4.348;2022-12-29T05:51:05;10.00;99.90
23069;DHT22;11702;50.856;4.348;2022-12-29T05:53:31;9.90;99.90
23069;DHT22;11702;50.856;4.348;2022-12-29T05:55:57;9.80;99.90
23069;DHT22;11702;50.856;4.348;2022-12-29T05:58:22;9.80;99.90
23069;DHT22;11702;50.856;4.348;2022-12-29T06:00:49;9.90;99.90
23069;DHT22;11702;50.856;4.348;2022-12-29T06:03:15;9.80;99.90
23069;DHT22;11702;50.856;4.348;2022-12-29T06:05:40;9.70;99.90
23069;DHT22;11702;50.856;4.348;2022-12-29T06:08:06;9.70;99.90
23069;DHT22;11702;50.856;4.348;2022-12-29T06:10:31;9.60;99.90
23069;DHT22;11702;50.856;4.348;2022-12-29T06:12:57;9.60;99.90
23069;DHT22;11702;50.856;4.348;2022-12-29T06:15:22;9.50;99.90
23069;DHT22;11702;50.856;4.348;2022-12-29T06:17:48;9.50;99.90
23069;DHT22;11702;50.856;4.348;2022-12-29T06:20:14;9.50;99.90
23069;DHT22;11702;50.856;4.348;2022-12-29T06:22:40;9.50;99.90
23069;DHT22;11702;50.856;4.348;2022-12-29T06:25:06;9.40;99.90
23069;DHT22;11702;50.856;4.348;2022-12-29T06:27:32;9.40;99.90
23069;DHT22;11702;50.856;4.348;2022-12-29T06:29:58;9.50;99.90
23069;DHT22;11702;50.856;4.348;2022-12-29T06:32:24;9.40;99.90
23069;DHT22;11702;50.856;4.348;2022-12-29T06:34:49;9.50;99.90
23069;DHT22;11702;50.856;4.348;2022-12-29T06:37:15;9.50;99.90
23069;DHT22;11702;50.856;4.348;2022-12-29T06:39:40;9.60;99.90
23069;DHT22;11702;50.856;4.348;2022-12-29T06:42:06;9.60;99.90
23069;DHT22;11702;50.856;4.348;2022-12-29T06:44:32;9.60;99.90
23069;DHT22;11702;50.856;4.348;2022-12-29T06:46:57;9.70;99.90
23069;DHT22;11702;50.856;4.348;2022-12-29T06:49:23;9.90;99.90
23069;DHT22;11702;50.856;4.348;2022-12-29T06:51:49;9.90;99.90
23069;DHT22;11702;50.856;4.348;2022-12-29T06:54:14;10.00;99.90
23069;DHT22;11702;50.856;4.348;2022-12-29T06:56:40;10.00;99.90
23069;DHT22;11702;50.856;4.348;2022-12-29T06:59:06;9.90;99.90
23069;DHT22;11702;50.856;4.348;2022-12-29T07:01:31;9.90;99.90
23069;DHT22;11702;50.856;4.348;2022-12-29T07:03:57;9.90;99.90
23069;DHT22;11702;50.856;4.348;2022-12-29T07:06:23;10.10;99.90
23069;DHT22;11702;50.856;4.348;2022-12-29T07:08:48;10.00;99.90
23069;DHT22;11702;50.856;4.348;2022-12-29T07:11:14;10.00;99.90
23069;DHT22;11702;50.856;4.348;2022-12-29T07:13:40;10.10;99.90
23069;DHT22;11702;50.856;4.348;2022-12-29T07:16:08;10.10;99.90
23069;DHT22;11702;50.856;4.348;2022-12-29T07:18:34;10.10;99.90
23069;DHT22;11702;50.856;4.348;2022-12-29T07:20:59;10.00;99.90
23069;DHT22;11702;50.856;4.348;2022-12-29T07:23:25;10.00;99.90
23069;DHT22;11702;50.856;4.348;2022-12-29T07:26:05;10.20;99.90
23069;DHT22;11702;50.856;4.348;2022-12-29T07:28:31;10.20;99.90
23069;DHT22;11702;50.856;4.348;2022-12-29T07:31:00;10.30;99.90
23069;DHT22;11702;50.856;4.348;2022-12-29T07:33:30;10.20;99.90
23069;DHT22;11702;50.856;4.348;2022-12-29T07:35:55;10.30;99.90
23069;DHT22;11702;50.856;4.348;2022-12-29T07:38:21;10.20;99.90
23069;DHT22;11702;50.856;4.348;2022-12-29T07:40:47;10.30;99.90
23069;DHT22;11702;50.856;4.348;2022-12-29T07:43:12;10.20;99.90
23069;DHT22;11702;50.856;4.348;2022-12-29T07:45:38;10.20;99.90
23069;DHT22;11702;50.856;4.348;2022-12-29T07:48:04;10.10;99.90
23069;DHT22;11702;50.856;4.348;2022-12-29T07:50:33;10.10;99.90
23069;DHT22;11702;50.856;4.348;2022-12-29T07:52:59;10.20;99.90
23069;DHT22;11702;50.856;4.348;2022-12-29T07:55:24;10.20;99.90
23069;DHT22;11702;50.856;4.348;2022-12-29T07:57:53;10.20;99.90
23069;DHT22;11702;50.856;4.348;2022-12-29T08:00:19;10.30;99.90
23069;DHT22;11702;50.856;4.348;2022-12-29T08:02:45;10.30;99.90
23069;DHT22;11702;50.856;4.348;2022-12-29T08:05:12;10.40;99.90
23069;DHT22;11702;50.856;4.348;2022-12-29T08:07:37;10.40;99.90
23069;DHT22;11702;50.856;4.348;2022-12-29T08:10:03;10.20;99.90
23069;DHT22;11702;50.856;4.348;2022-12-29T08:12:29;10.20;99.90
23069;DHT22;11702;50.856;4.348;2022-12-29T08:14:56;10.30;99.90
23069;DHT22;11702;50.856;4.348;2022-12-29T08:17:21;10.20;99.90
23069;DHT22;11702;50.856;4.348;2022-12-29T08:19:47;10.40;99.90
23069;DHT22;11702;50.856;4.348;2022-12-29T08:22:15;10.40;99.90
23069;DHT22;11702;50.856;4.348;2022-12-29T08:24:41;10.50;99.90
23069;DHT22;11702;50.856;4.348;2022-12-29T08:27:07;10.30;99.90
23069;DHT22;11702;50.856;4.348;2022-12-29T08:29:32;10.30;99.90
23069;DHT22;11702;50.856;4.348;2022-12-29T08:31:58;10.50;99.90
23069;DHT22;11702;50.856;4.348;2022-12-29T08:34:23;10.40;99.90
23069;DHT22;11702;50.856;4.348;2022-12-29T08:36:49;10.50;99.90
23069;DHT22;11702;50.856;4.348;2022-12-29T08:39:14;10.70;99.90
23069;DHT22;11702;50.856;4.348;2022-12-29T08:41:40;10.60;99.90
23069;DHT22;11702;50.856;4.348;2022-12-29T08:44:06;10.50;99.90
23069;DHT22;11702;50.856;4.348;2022-12-29T08:46:32;10.50;99.90
23069;DHT22;11702;50.856;4.348;2022-12-29T08:48:57;10.50;99.90
23069;DHT22;11702;50.856;4.348;2022-12-29T08:51:23;10.50;99.90
23069;DHT22;11702;50.856;4.348;2022-12-29T08:53:48;10.50;99.90
23069;DHT22;11702;50.856;4.348;2022-12-29T08:56:14;10.50;99.90
23069;DHT22;11702;50.856;4.348;2022-12-29T08:58:40;10.50;99.90
23069;DHT22;11702;50.856;4.348;2022-12-29T09:01:05;10.60;99.90
23069;DHT22;11702;50.856;4.348;2022-12-29T09:03:31;10.70;99.90
23069;DHT22;11702;50.856;4.348;2022-12-29T09:05:57;10.60;99.90
23069;DHT22;11702;50.856;4.348;2022-12-29T09:08:22;10.60;99.90
23069;DHT22;11702;50.856;4.348;2022-12-29T09:10:48;10.50;99.90
23069;DHT22;11702;50.856;4.348;2022-12-29T09:13:15;10.40;99.90
23069;DHT22;11702;50.856;4.348;2022-12-29T09:15:41;10.30;99.90
23069;DHT22;11702;50.856;4.348;2022-12-29T09:18:08;10.30;99.90
23069;DHT22;11702;50.856;4.348;2022-12-29T09:20:34;10.30;99.90
23069;DHT22;11702;50.856;4.348;2022-12-29T09:23:00;10.30;99.90
23069;DHT22;11702;50.856;4.348;2022-12-29T09:25:27;10.30;99.90
23069;DHT22;11702;50.856;4.348;2022-12-29T09:27:53;10.20;99.90
23069;DHT22;11702;50.856;4.348;2022-12-29T09:30:20;10.10;99.90
23069;DHT22;11702;50.856;4.348;2022-12-29T09:32:46;10.00;99.90
23069;DHT22;11702;50.856;4.348;2022-12-29T09:35:14;9.90;99.90
23069;DHT22;11702;50.856;4.348;2022-12-29T09:37:40;9.90;99.90
23069;DHT22;11702;50.856;4.348;2022-12-29T09:40:06;9.90;99.90
23069;DHT22;11702;50.856;4.348;2022-12-29T09:45:18;9.90;99.90
23069;DHT22;11702;50.856;4.348;2022-12-29T09:47:45;10.00;99.90
23069;DHT22;11702;50.856;4.348;2022-12-29T09:50:19;10.00;99.90
23069;DHT22;11702;50.856;4.348;2022-12-29T09:55:23;10.00;99.90
23069;DHT22;11702;50.856;4.348;2022-12-29T10:01:07;10.10;99.90
23069;DHT22;11702;50.856;4.348;2022-12-29T10:03:45;10.30;99.90
23069;DHT22;11702;50.856;4.348;2022-12-29T10:17:25;10.70;99.90
23069;DHT22;11702;50.856;4.348;2022-12-29T10:25:30;10.90;99.90
23069;DHT22;11702;50.856;4.348;2022-12-29T10:27:59;11.00;99.90
23069;DHT22;11702;50.856;4.348;2022-12-29T10:30:27;11.10;99.90
23069;DHT22;11702;50.856;4.348;2022-12-29T10:32:58;11.20;99.90
23069;DHT22;11702;50.856;4.348;2022-12-29T10:35:32;11.10;99.90
23069;DHT22;11702;50.856;4.348;2022-12-29T10:40:43;11.30;99.90
23069;DHT22;11702;50.856;4.348;2022-12-29T10:43:35;11.30;99.90
23069;DHT22;11702;50.856;4.348;2022-12-29T10:46:09;11.40;99.90
23069;DHT22;11702;50.856;4.348;2022-12-29T10:48:36;11.40;99.90
23069;DHT22;11702;50.856;4.348;2022-12-29T10:51:05;11.50;99.90
23069;DHT22;11702;50.856;4.348;2022-12-29T10:53:45;11.70;99.90
23069;DHT22;11702;50.856;4.348;2022-12-29T10:58:55;11.90;99.90
23069;DHT22;11702;50.856;4.348;2022-12-29T11:01:25;12.10;99.90
23069;DHT22;11702;50.856;4.348;2022-12-29T11:04:03;12.20;99.90
23069;DHT22;11702;50.856;4.348;2022-12-29T11:06:29;12.30;99.90
23069;DHT22;11702;50.856;4.348;2022-12-29T11:09:21;12.40;99.90
23069;DHT22;11702;50.856;4.348;2022-12-29T11:11:48;12.60;99.90
23069;DHT22;11702;50.856;4.348;2022-12-29T11:14:27;12.60;99.90
23069;DHT22;11702;50.856;4.348;2022-12-29T11:16:58;12.50;99.90
23069;DHT22;11702;50.856;4.348;2022-12-29T11:19:27;12.60;99.90
23069;DHT22;11702;50.856;4.348;2022-12-29T11:21:54;12.70;99.90
23069;DHT22;11702;50.856;4.348;2022-12-29T11:26:45;13.10;99.90
23069;DHT22;11702;50.856;4.348;2022-12-29T11:29:20;13.00;99.90
23069;DHT22;11702;50.856;4.348;2022-12-29T11:31:56;12.90;99.90
23069;DHT22;11702;50.856;4.348;2022-12-29T11:34:33;12.70;99.90
23069;DHT22;11702;50.856;4.348;2022-12-29T11:39:33;12.50;99.90
23069;DHT22;11702;50.856;4.348;2022-12-29T11:42:00;12.30;99.90
23069;DHT22;11702;50.856;4.348;2022-12-29T11:44:36;12.10;99.90
23069;DHT22;11702;50.856;4.348;2022-12-29T11:47:04;11.90;99.90
23069;DHT22;11702;50.856;4.348;2022-12-29T11:49:30;11.80;99.90
23069;DHT22;11702;50.856;4.348;2022-12-29T11:51:56;11.70;99.90
23069;DHT22;11702;50.856;4.348;2022-12-29T11:54:29;11.70;99.90
23069;DHT22;11702;50.856;4.348;2022-12-29T11:56:57;11.60;99.90
23069;DHT22;11702;50.856;4.348;2022-12-29T12:01:53;11.40;99.90
23069;DHT22;11702;50.856;4.348;2022-12-29T12:04:22;11.40;99.90
23069;DHT22;11702;50.856;4.348;2022-12-29T12:07:03;11.30;99.90
23069;DHT22;11702;50.856;4.348;2022-12-29T12:09:37;11.30;99.90
23069;DHT22;11702;50.856;4.348;2022-12-29T12:12:05;11.30;99.90
23069;DHT22;11702;50.856;4.348;2022-12-29T12:14:43;11.30;99.90
23069;DHT22;11702;50.856;4.348;2022-12-29T12:17:19;11.30;99.90
23069;DHT22;11702;50.856;4.348;2022-12-29T12:23:28;11.40;99.90
23069;DHT22;11702;50.856;4.348;2022-12-29T12:25:38;11.20;99.90
23069;DHT22;11702;50.856;4.348;2022-12-29T12:28:20;11.00;99.90
23069;DHT22;11702;50.856;4.348;2022-12-29T12:30:50;11.00;99.90
23069;DHT22;11702;50.856;4.348;2022-12-29T12:33:36;11.00;99.90
23069;DHT22;11702;50.856;4.348;2022-12-29T12:38:55;11.20;99.90
23069;DHT22;11702;50.856;4.348;2022-12-29T12:41:53;11.10;99.90
23069;DHT22;11702;50.856;4.348;2022-12-29T12:44:41;11.20;99.90
23069;DHT22;11702;50.856;4.348;2022-12-29T12:47:28;11.30;99.90
23069;DHT22;11702;50.856;4.348;2022-12-29T12:50:06;11.40;99.90
23069;DHT22;11702;50.856;4.348;2022-12-29T12:53:01;11.40;99.90
23069;DHT22;11702;50.856;4.348;2022-12-29T12:58:49;11.20;99.90
23069;DHT22;11702;50.856;4.348;2022-12-29T13:01:20;11.20;99.90
23069;DHT22;11702;50.856;4.348;2022-12-29T13:03:54;11.10;99.90
23069;DHT22;11702;50.856;4.348;2022-12-29T13:07:04;11.20;99.90
23069;DHT22;11702;50.856;4.348;2022-12-29T13:15:38;11.10;99.90
23069;DHT22;11702;50.856;4.348;2022-12-29T13:18:22;11.10;99.90
23069;DHT22;11702;50.856;4.348;2022-12-29T13:26:20;11.30;99.90
23069;DHT22;11702;50.856;4.348;2022-12-29T13:29:16;11.30;99.90
23069;DHT22;11702;50.856;4.348;2022-12-29T13:31:50;11.30;99.90
23069;DHT22;11702;50.856;4.348;2022-12-29T13:37:20;11.40;99.90
23069;DHT22;11702;50.856;4.348;2022-12-29T13:40:03;11.30;99.90
23069;DHT22;11702;50.856;4.348;2022-12-29T13:42:31;11.30;99.90
23069;DHT22;11702;50.856;4.348;2022-12-29T13:45:06;11.30;99.90
23069;DHT22;11702;50.856;4.348;2022-12-29T13:48:17;11.40;99.90
23069;DHT22;11702;50.856;4.348;2022-12-29T13:50:51;11.50;99.90
23069;DHT22;11702;50.856;4.348;2022-12-29T13:53:49;11.20;99.90
23069;DHT22;11702;50.856;4.348;2022-12-29T14:01:50;11.00;99.90
23069;DHT22;11702;50.856;4.348;2022-12-29T14:04:27;11.00;99.90
23069;DHT22;11702;50.856;4.348;2022-12-29T14:07:16;11.00;99.90
23069;DHT22;11702;50.856;4.348;2022-12-29T14:09:51;10.90;99.90
23069;DHT22;11702;50.856;4.348;2022-12-29T14:12:30;10.80;99.90
23069;DHT22;11702;50.856;4.348;2022-12-29T14:17:38;11.00;99.90
23069;DHT22;11702;50.856;4.348;2022-12-29T14:20:21;11.00;99.90
23069;DHT22;11702;50.856;4.348;2022-12-29T14:28:29;11.00;99.90
23069;DHT22;11702;50.856;4.348;2022-12-29T14:30:59;11.10;99.90
23069;DHT22;11702;50.856;4.348;2022-12-29T14:33:27;11.00;99.90
23069;DHT22;11702;50.856;4.348;2022-12-29T14:35:54;11.00;99.90
23069;DHT22;11702;50.856;4.348;2022-12-29T14:38:23;11.10;99.90
23069;DHT22;11702;50.856;4.348;2022-12-29T14:40:49;11.00;99.90
23069;DHT22;11702;50.856;4.348;2022-12-29T14:43:24;10.60;99.90
23069;DHT22;11702;50.856;4.348;2022-12-29T14:45:57;10.10;99.90
23069;DHT22;11702;50.856;4.348;2022-12-29T14:48:32;9.70;99.90
23069;DHT22;11702;50.856;4.348;2022-12-29T14:50:58;9.30;99.90
23069;DHT22;11702;50.856;4.348;2022-12-29T14:53:44;9.10;99.90
23069;DHT22;11702;50.856;4.348;2022-12-29T14:56:12;8.90;99.90
23069;DHT22;11702;50.856;4.348;2022-12-29T14:58:46;8.90;99.90
23069;DHT22;11702;50.856;4.348;2022-12-29T15:03:47;8.50;99.90
23069;DHT22;11702;50.856;4.348;2022-12-29T15:06:16;8.50;99.90
23069;DHT22;11702;50.856;4.348;2022-12-29T15:08:51;8.40;99.90
23069;DHT22;11702;50.856;4.348;2022-12-29T15:11:23;8.30;99.90
23069;DHT22;11702;50.856;4.348;2022-12-29T15:13:49;8.20;99.90
23069;DHT22;11702;50.856;4.348;2022-12-29T15:18:52;8.20;99.90
23069;DHT22;11702;50.856;4.348;2022-12-29T15:21:24;8.10;99.90
23069;DHT22;11702;50.856;4.348;2022-12-29T15:23:50;8.20;99.90
23069;DHT22;11702;50.856;4.348;2022-12-29T15:26:16;8.20;99.90
23069;DHT22;11702;50.856;4.348;2022-12-29T15:28:49;8.20;99.90
23069;DHT22;11702;50.856;4.348;2022-12-29T15:31:20;8.30;99.90
23069;DHT22;11702;50.856;4.348;2022-12-29T15:33:52;8.20;99.90
23069;DHT22;11702;50.856;4.348;2022-12-29T15:36:26;8.10;99.90
23069;DHT22;11702;50.856;4.348;2022-12-29T15:38:52;8.10;99.90
23069;DHT22;11702;50.856;4.348;2022-12-29T15:43:56;8.10;99.90
23069;DHT22;11702;50.856;4.348;2022-12-29T15:46:27;8.00;99.90
23069;DHT22;11702;50.856;4.348;2022-12-29T15:48:55;8.00;99.90
23069;DHT22;11702;50.856;4.348;2022-12-29T15:51:29;8.00;99.90
23069;DHT22;11702;50.856;4.348;2022-12-29T15:53:56;8.00;99.90
23069;DHT22;11702;50.856;4.348;2022-12-29T15:56:22;8.00;99.90
23069;DHT22;11702;50.856;4.348;2022-12-29T15:58:50;8.00;99.90
23069;DHT22;11702;50.856;4.348;2022-12-29T16:01:19;8.00;99.90
23069;DHT22;11702;50.856;4.348;2022-12-29T16:03:50;8.00;99.90
23069;DHT22;11702;50.856;4.348;2022-12-29T16:06:26;7.90;99.90
23069;DHT22;11702;50.856;4.348;2022-12-29T16:08:59;7.90;99.90
23069;DHT22;11702;50.856;4.348;2022-12-29T16:11:50;7.80;99.90
23069;DHT22;11702;50.856;4.348;2022-12-29T16:14:19;7.80;99.90
23069;DHT22;11702;50.856;4.348;2022-12-29T16:16:47;7.90;99.90
23069;DHT22;11702;50.856;4.348;2022-12-29T16:19:21;7.80;99.90
23069;DHT22;11702;50.856;4.348;2022-12-29T16:21:50;7.80;99.90
23069;DHT22;11702;50.856;4.348;2022-12-29T16:24:19;7.80;99.90
23069;DHT22;11702;50.856;4.348;2022-12-29T16:29:21;7.90;99.90
23069;DHT22;11702;50.856;4.348;2022-12-29T16:31:51;7.90;99.90
23069;DHT22;11702;50.856;4.348;2022-12-29T16:34:43;7.90;99.90
23069;DHT22;11702;50.856;4.348;2022-12-29T16:39:46;7.80;99.90
23069;DHT22;11702;50.856;4.348;2022-12-29T16:50:37;7.70;99.90
23069;DHT22;11702;50.856;4.348;2022-12-29T16:53:04;7.90;99.90
23069;DHT22;11702;50.856;4.348;2022-12-29T16:55:30;7.90;99.90
23069;DHT22;11702;50.856;4.348;2022-12-29T16:57:57;7.90;99.90
23069;DHT22;11702;50.856;4.348;2022-12-29T17:00:26;7.90;99.90
23069;DHT22;11702;50.856;4.348;2022-12-29T17:02:58;7.80;99.90
23069;DHT22;11702;50.856;4.348;2022-12-29T17:05:24;7.70;99.90
23069;DHT22;11702;50.856;4.348;2022-12-29T17:07:50;7.60;99.90
23069;DHT22;11702;50.856;4.348;2022-12-29T17:10:16;7.60;99.90
23069;DHT22;11702;50.856;4.348;2022-12-29T17:12:44;7.60;99.90
23069;DHT22;11702;50.856;4.348;2022-12-29T17:15:24;7.60;99.90
23069;DHT22;11702;50.856;4.348;2022-12-29T17:17:53;7.50;99.90
23069;DHT22;11702;50.856;4.348;2022-12-29T17:20:28;7.50;99.90
23069;DHT22;11702;50.856;4.348;2022-12-29T17:22:55;7.50;99.90
23069;DHT22;11702;50.856;4.348;2022-12-29T17:25:30;7.60;99.90
23069;DHT22;11702;50.856;4.348;2022-12-29T17:28:03;7.60;99.90
23069;DHT22;11702;50.856;4.348;2022-12-29T17:30:31;7.60;99.90
23069;DHT22;11702;50.856;4.348;2022-12-29T17:33:04;7.60;99.90
23069;DHT22;11702;50.856;4.348;2022-12-29T17:35:30;7.50;99.90
23069;DHT22;11702;50.856;4.348;2022-12-29T17:37:55;7.40;99.90
23069;DHT22;11702;50.856;4.348;2022-12-29T17:40:24;7.30;99.90
23069;DHT22;11702;50.856;4.348;2022-12-29T17:42:55;7.30;99.90
23069;DHT22;11702;50.856;4.348;2022-12-29T17:45:30;7.40;99.90
23069;DHT22;11702;50.856;4.348;2022-12-29T17:47:57;7.50;99.90
23069;DHT22;11702;50.856;4.348;2022-12-29T17:50:27;7.40;99.90
23069;DHT22;11702;50.856;4.348;2022-12-29T17:53:00;7.50;99.90
23069;DHT22;11702;50.856;4.348;2022-12-29T17:55:27;7.50;99.90
23069;DHT22;11702;50.856;4.348;2022-12-29T17:57:53;7.40;99.90
23069;DHT22;11702;50.856;4.348;2022-12-29T18:00:27;7.40;99.90
23069;DHT22;11702;50.856;4.348;2022-12-29T18:02:53;7.40;99.90
23069;DHT22;11702;50.856;4.348;2022-12-29T18:05:23;7.40;99.90
23069;DHT22;11702;50.856;4.348;2022-12-29T18:07:51;7.40;99.90
23069;DHT22;11702;50.856;4.348;2022-12-29T18:10:17;7.30;99.90
23069;DHT22;11702;50.856;4.348;2022-12-29T18:12:45;7.30;99.90